createdAt,value
2023-03-18T00:00:25.711Z,66.70
2023-03-18T00:02:53.070Z,66.20
2023-03-18T00:05:20.401Z,65.90
2023-03-18T00:07:47.577Z,65.40
2023-03-18T00:10:14.792Z,65.10
2023-03-18T00:12:41.824Z,65.20
2023-03-18T00:15:11.732Z,65.00
2023-03-18T00:17:40.192Z,64.60
2023-03-18T00:20:09.284Z,63.80
2023-03-18T00:22:37.825Z,63.90
2023-03-18T00:25:07.032Z,63.20
2023-03-18T00:27:34.930Z,63.20
2023-03-18T00:30:03.421Z,63.00
2023-03-18T00:32:30.285Z,62.30
2023-03-18T00:34:57.295Z,61.90
2023-03-18T00:37:31.586Z,62.40
2023-03-18T00:40:05.173Z,62.60
2023-03-18T00:42:39.192Z,63.50
2023-03-18T00:45:08.687Z,63.10
2023-03-18T00:47:35.956Z,62.80
2023-03-18T00:50:03.354Z,61.80
2023-03-18T00:52:32.326Z,62.00
2023-03-18T00:55:00.148Z,62.10
2023-03-18T00:57:28.619Z,62.50
2023-03-18T00:59:56.022Z,62.50
2023-03-18T01:02:23.659Z,62.40
2023-03-18T01:04:51.167Z,62.60
2023-03-18T01:07:18.351Z,62.20
2023-03-18T01:09:45.288Z,62.50
2023-03-18T01:12:12.677Z,63.30
2023-03-18T01:14:41.119Z,63.70
2023-03-18T01:17:08.763Z,64.30
2023-03-18T01:19:37.329Z,63.80
2023-03-18T01:22:04.220Z,64.00
2023-03-18T01:24:31.239Z,65.80
2023-03-18T01:26:58.207Z,65.10
2023-03-18T01:29:25.324Z,65.40
2023-03-18T01:31:52.195Z,65.10
2023-03-18T01:34:19.420Z,65.10
2023-03-18T01:36:46.564Z,64.40
2023-03-18T01:39:14.446Z,64.70
2023-03-18T01:41:41.606Z,65.00
2023-03-18T01:44:17.723Z,65.50
2023-03-18T01:46:46.617Z,65.80
2023-03-18T01:49:38.962Z,65.00
2023-03-18T01:52:20.462Z,65.70
2023-03-18T01:54:54.796Z,65.20
2023-03-18T01:57:22.917Z,64.90
2023-03-18T01:59:52.221Z,65.20
2023-03-18T02:02:19.552Z,64.40
2023-03-18T02:04:55.158Z,64.40
2023-03-18T02:07:28.100Z,65.60
2023-03-18T02:09:56.858Z,66.60
2023-03-18T02:12:30.064Z,66.60
2023-03-18T02:14:57.203Z,67.00
2023-03-18T02:17:29.212Z,67.40
2023-03-18T02:20:20.378Z,67.80
2023-03-18T02:22:54.923Z,67.30
2023-03-18T02:26:06.838Z,67.30
2023-03-18T02:28:34.722Z,67.60
2023-03-18T02:31:05.595Z,67.20
2023-03-18T02:33:41.974Z,67.00
2023-03-18T02:36:18.037Z,67.20
2023-03-18T02:38:46.578Z,66.50
2023-03-18T02:41:18.929Z,65.70
2023-03-18T02:43:46.485Z,65.80
2023-03-18T02:46:31.358Z,65.30
2023-03-18T02:49:00.430Z,64.60
2023-03-18T02:51:28.920Z,64.00
2023-03-18T02:54:00.911Z,63.60
2023-03-18T02:56:27.723Z,63.00
2023-03-18T02:58:54.489Z,63.20
2023-03-18T03:01:22.706Z,63.20
2023-03-18T03:03:50.028Z,63.50
2023-03-18T03:06:17.481Z,63.90
2023-03-18T03:08:44.686Z,63.90
2023-03-18T03:11:11.663Z,64.10
2023-03-18T03:13:41.501Z,64.10
2023-03-18T03:16:09.419Z,64.50
2023-03-18T03:18:37.338Z,64.40
2023-03-18T03:21:05.114Z,64.10
2023-03-18T03:23:32.585Z,64.60
2023-03-18T03:25:59.481Z,64.80
2023-03-18T03:28:27.140Z,64.80
2023-03-18T03:30:55.775Z,64.50
2023-03-18T03:33:23.449Z,64.30
2023-03-18T03:35:50.265Z,63.60
2023-03-18T03:38:17.229Z,63.30
2023-03-18T03:40:44.184Z,64.30
2023-03-18T03:43:13.382Z,64.60
2023-03-18T03:45:41.165Z,65.00
2023-03-18T03:48:09.056Z,66.30
2023-03-18T03:50:37.188Z,66.60
2023-03-18T03:53:04.975Z,66.50
2023-03-18T03:55:33.749Z,65.50
2023-03-18T03:58:01.226Z,65.40
2023-03-18T04:00:28.206Z,65.00
2023-03-18T04:02:55.028Z,64.80
2023-03-18T04:05:24.549Z,65.40
2023-03-18T04:07:52.561Z,65.00
2023-03-18T04:10:21.168Z,65.20
2023-03-18T04:12:48.814Z,66.80
2023-03-18T04:15:17.607Z,66.80
2023-03-18T04:17:44.660Z,66.80
2023-03-18T04:20:12.267Z,66.80
2023-03-18T04:22:39.101Z,67.20
2023-03-18T04:25:06.493Z,66.80
2023-03-18T04:27:33.432Z,66.80
2023-03-18T04:30:00.798Z,66.80
2023-03-18T04:32:27.651Z,66.90
2023-03-18T04:34:54.921Z,66.30
2023-03-18T04:37:21.672Z,66.90
2023-03-18T04:39:48.690Z,66.20
2023-03-18T04:42:16.600Z,65.90
2023-03-18T04:44:43.597Z,65.40
2023-03-18T04:47:10.571Z,65.50
2023-03-18T04:49:38.010Z,65.80
2023-03-18T04:52:05.738Z,65.80
2023-03-18T04:54:32.599Z,65.70
2023-03-18T04:56:59.547Z,65.70
2023-03-18T04:59:26.411Z,66.00
2023-03-18T05:01:53.645Z,66.50
2023-03-18T05:04:20.421Z,65.40
2023-03-18T05:06:47.337Z,66.80
2023-03-18T05:09:14.294Z,67.30
2023-03-18T05:11:41.168Z,67.50
2023-03-18T05:14:07.977Z,67.10
2023-03-18T05:16:35.491Z,66.40
2023-03-18T05:19:02.697Z,66.10
2023-03-18T05:21:30.571Z,64.90
2023-03-18T05:23:57.435Z,64.90
2023-03-18T05:26:24.897Z,65.30
2023-03-18T05:28:52.587Z,65.50
2023-03-18T05:31:20.070Z,65.60
2023-03-18T05:33:47.850Z,64.70
2023-03-18T05:36:14.707Z,65.30
2023-03-18T05:38:41.729Z,65.30
2023-03-18T05:41:08.461Z,64.80
2023-03-18T05:43:35.259Z,64.90
2023-03-18T05:46:02.044Z,64.70
2023-03-18T05:48:28.880Z,64.00
2023-03-18T05:50:55.685Z,64.40
2023-03-18T05:53:22.494Z,64.90
2023-03-18T05:55:49.202Z,64.70
2023-03-18T05:58:15.949Z,63.80
2023-03-18T06:00:43.505Z,64.00
2023-03-18T06:03:10.413Z,64.80
2023-03-18T06:05:37.285Z,64.70
2023-03-18T06:08:04.474Z,64.10
2023-03-18T06:10:31.413Z,64.40
2023-03-18T06:12:58.185Z,64.30
2023-03-18T06:15:25.745Z,64.70
2023-03-18T06:17:52.938Z,64.20
2023-03-18T06:20:19.903Z,63.90
2023-03-18T06:22:50.463Z,63.60
2023-03-18T06:25:20.386Z,63.10
2023-03-18T06:27:48.023Z,62.70
2023-03-18T06:30:16.459Z,61.90
2023-03-18T06:32:43.538Z,61.90
2023-03-18T06:35:11.778Z,61.30
2023-03-18T06:37:40.141Z,60.70
2023-03-18T06:40:08.866Z,60.50
2023-03-18T06:42:36.201Z,60.10
2023-03-18T06:45:04.010Z,61.00
2023-03-18T06:47:30.925Z,61.80
2023-03-18T06:49:57.881Z,61.70
2023-03-18T06:52:24.746Z,62.30
2023-03-18T06:54:51.929Z,61.70
2023-03-18T06:57:21.168Z,61.00
2023-03-18T06:59:48.131Z,60.80
2023-03-18T07:02:15.593Z,60.80
2023-03-18T07:04:42.615Z,59.60
2023-03-18T07:07:09.676Z,58.00
2023-03-18T07:09:36.627Z,57.90
2023-03-18T07:12:03.761Z,58.70
2023-03-18T07:14:30.750Z,58.70
2023-03-18T07:16:57.753Z,57.40
2023-03-18T07:19:24.708Z,56.40
2023-03-18T07:21:51.718Z,56.70
2023-03-18T07:24:21.202Z,55.70
2023-03-18T07:26:50.294Z,55.30
2023-03-18T07:29:17.906Z,53.60
2023-03-18T07:31:44.944Z,51.80
2023-03-18T07:34:13.036Z,50.60
2023-03-18T07:36:39.874Z,48.70
2023-03-18T07:39:07.729Z,46.80
2023-03-18T07:41:37.293Z,45.00
2023-03-18T07:44:04.997Z,44.30
2023-03-18T07:46:31.863Z,43.70
2023-03-18T07:49:00.057Z,43.10
2023-03-18T07:51:27.489Z,42.20
2023-03-18T07:53:54.420Z,40.50
2023-03-18T07:56:21.388Z,39.20
2023-03-18T07:58:48.283Z,38.80
2023-03-18T08:01:18.598Z,38.70
2023-03-18T08:03:46.799Z,38.70
2023-03-18T08:06:15.350Z,38.20
2023-03-18T08:08:43.071Z,37.80
2023-03-18T08:11:10.319Z,37.40
2023-03-18T08:13:38.846Z,36.20
2023-03-18T08:16:06.529Z,36.40
2023-03-18T08:18:33.436Z,35.80
2023-03-18T08:21:00.564Z,35.70
2023-03-18T08:23:27.892Z,34.50
2023-03-18T08:25:54.758Z,33.40
2023-03-18T08:28:21.801Z,33.30
2023-03-18T08:30:48.898Z,32.40
2023-03-18T08:33:16.085Z,31.80
2023-03-18T08:35:43.029Z,31.50
2023-03-18T08:38:11.291Z,32.00
2023-03-18T08:40:41.171Z,31.30
2023-03-18T08:43:08.376Z,30.50
2023-03-18T08:45:37.095Z,30.50
2023-03-18T08:48:04.139Z,29.70
2023-03-18T08:50:30.973Z,29.40
2023-03-18T08:52:59.988Z,28.10
2023-03-18T08:55:37.136Z,27.30
2023-03-18T08:58:05.930Z,27.20
2023-03-18T09:00:35.263Z,26.90
2023-03-18T09:03:03.534Z,26.00
2023-03-18T09:05:31.393Z,25.80
2023-03-18T09:07:59.161Z,25.90
2023-03-18T09:10:26.910Z,25.60
2023-03-18T09:12:53.744Z,25.70
2023-03-18T09:15:20.716Z,25.30
2023-03-18T09:18:07.987Z,23.90
2023-03-18T09:20:37.762Z,24.30
2023-03-18T09:23:05.090Z,23.90
2023-03-18T09:25:32.534Z,23.60
2023-03-18T09:28:00.430Z,23.30
2023-03-18T09:30:27.957Z,23.20
2023-03-18T09:32:54.928Z,22.90
2023-03-18T09:35:21.665Z,22.10
2023-03-18T09:37:48.689Z,21.60
2023-03-18T09:40:24.873Z,22.10
2023-03-18T09:43:13.828Z,21.70
2023-03-18T09:46:06.920Z,21.30
2023-03-18T09:48:51.849Z,22.00
2023-03-18T09:51:46.885Z,22.10
2023-03-18T09:54:36.793Z,21.20
2023-03-18T09:57:05.834Z,20.80
2023-03-18T09:59:41.679Z,20.90
2023-03-18T10:02:22.215Z,20.90
2023-03-18T10:04:59.547Z,20.00
2023-03-18T10:07:33.563Z,19.90
2023-03-18T10:10:11.930Z,20.00
2023-03-18T10:12:50.642Z,19.60
2023-03-18T10:15:54.317Z,20.00
2023-03-18T10:18:32.912Z,19.50
2023-03-18T10:21:26.298Z,19.50
2023-03-18T10:24:21.203Z,19.10
2023-03-18T10:27:19.224Z,18.50
2023-03-18T10:30:03.869Z,19.00
2023-03-18T10:32:56.905Z,19.40
2023-03-18T10:35:49.978Z,19.20
2023-03-18T10:38:23.746Z,18.90
2023-03-18T10:40:50.537Z,19.00
2023-03-18T10:43:19.836Z,18.90
2023-03-18T10:45:51.900Z,19.00
2023-03-18T10:48:43.776Z,19.30
2023-03-18T10:51:19.761Z,19.80
2023-03-18T10:53:56.966Z,19.80
2023-03-18T10:56:24.334Z,19.80
2023-03-18T10:58:52.776Z,19.60
2023-03-18T11:01:23.365Z,19.90
2023-03-18T11:03:51.995Z,20.80
2023-03-18T11:06:42.723Z,21.30
2023-03-18T11:09:12.386Z,20.50
2023-03-18T11:11:42.360Z,19.90
2023-03-18T11:14:17.166Z,20.10
2023-03-18T11:17:01.497Z,20.50
2023-03-18T11:19:39.199Z,20.00
2023-03-18T11:22:26.203Z,20.40
2023-03-18T11:25:16.489Z,20.00
2023-03-18T11:27:49.238Z,20.50
2023-03-18T11:30:34.410Z,20.20
2023-03-18T11:33:13.071Z,20.40
2023-03-18T11:35:54.139Z,20.10
2023-03-18T11:38:27.264Z,20.10
2023-03-18T11:41:05.385Z,20.40
2023-03-18T11:43:32.309Z,20.70
2023-03-18T11:46:03.343Z,20.80
2023-03-18T11:48:32.114Z,20.50
2023-03-18T11:51:05.370Z,20.70
2023-03-18T11:54:02.921Z,20.90
2023-03-18T11:56:47.402Z,21.00
2023-03-18T11:59:32.347Z,21.00
2023-03-18T12:02:02.051Z,21.00
2023-03-18T12:04:54.703Z,21.20
2023-03-18T12:07:57.630Z,21.20
2023-03-18T12:10:24.797Z,20.90
2023-03-18T12:13:03.631Z,21.40
2023-03-18T12:15:39.173Z,21.40
2023-03-18T12:18:34.770Z,21.00
2023-03-18T12:21:31.415Z,21.60
2023-03-18T12:24:26.526Z,21.10
2023-03-18T12:27:11.234Z,21.40
2023-03-18T12:29:59.533Z,21.80
2023-03-18T12:32:38.333Z,21.70
2023-03-18T12:35:24.623Z,21.70
2023-03-18T12:37:54.234Z,22.20
2023-03-18T12:40:42.852Z,22.30
2023-03-18T12:43:48.621Z,22.20
2023-03-18T12:46:36.071Z,21.90
2023-03-18T12:49:37.471Z,22.00
2023-03-18T12:52:18.459Z,21.80
2023-03-18T12:54:55.881Z,21.90
2023-03-18T12:57:38.406Z,21.80
2023-03-18T13:00:36.362Z,22.40
2023-03-18T13:03:22.039Z,22.20
2023-03-18T13:05:58.597Z,22.00
2023-03-18T13:08:44.694Z,21.30
2023-03-18T13:11:29.948Z,21.60
2023-03-18T13:14:03.592Z,20.90
2023-03-18T13:16:32.866Z,21.50
2023-03-18T13:18:59.920Z,21.10
2023-03-18T13:21:30.969Z,20.90
2023-03-18T13:24:19.582Z,21.10
2023-03-18T13:26:57.114Z,21.00
2023-03-18T13:29:44.955Z,21.30
2023-03-18T13:32:47.805Z,20.70
2023-03-18T13:35:17.535Z,20.60
2023-03-18T13:37:59.164Z,20.50
2023-03-18T13:40:52.410Z,20.20
2023-03-18T13:43:22.175Z,20.60
2023-03-18T13:45:57.262Z,20.40
2023-03-18T13:48:34.591Z,19.70
2023-03-18T13:51:23.752Z,19.70
2023-03-18T13:53:53.722Z,19.70
2023-03-18T13:56:45.756Z,19.70
2023-03-18T13:59:34.422Z,19.10
2023-03-18T14:02:29.461Z,18.30
2023-03-18T14:04:58.356Z,18.70
2023-03-18T14:07:26.828Z,18.70
2023-03-18T14:10:02.550Z,18.20
2023-03-18T14:12:35.193Z,18.80
2023-03-18T14:15:02.944Z,18.10
2023-03-18T14:17:39.302Z,17.30
2023-03-18T14:20:19.063Z,17.00
2023-03-18T14:22:51.882Z,16.70
2023-03-18T14:25:20.653Z,17.30
2023-03-18T14:28:13.578Z,17.50
2023-03-18T14:30:44.533Z,19.20
2023-03-18T14:33:20.203Z,19.10
2023-03-18T14:36:10.342Z,19.50
2023-03-18T14:39:03.497Z,19.00
2023-03-18T14:41:34.089Z,19.40
2023-03-18T14:44:15.910Z,19.10
2023-03-18T14:46:46.098Z,19.00
2023-03-18T14:49:38.223Z,19.20
2023-03-18T14:52:17.756Z,19.50
2023-03-18T14:54:46.087Z,19.90
2023-03-18T14:57:13.356Z,19.50
2023-03-18T14:59:40.156Z,19.30
2023-03-18T15:02:19.945Z,19.30
2023-03-18T15:04:55.592Z,19.30
2023-03-18T15:07:34.248Z,19.50
2023-03-18T15:10:12.754Z,19.90
2023-03-18T15:12:39.781Z,19.90
2023-03-18T15:15:07.804Z,20.10
2023-03-18T15:17:34.547Z,20.10
2023-03-18T15:20:01.649Z,20.10
2023-03-18T15:22:31.413Z,20.00
2023-03-18T15:25:01.709Z,20.30
2023-03-18T15:27:31.731Z,20.20
2023-03-18T15:30:00.810Z,20.10
2023-03-18T15:32:33.031Z,19.90
2023-03-18T15:35:15.499Z,20.10
2023-03-18T15:37:47.222Z,19.80
2023-03-18T15:40:28.318Z,20.00
2023-03-18T15:42:57.765Z,19.90
2023-03-18T15:45:28.557Z,20.00
2023-03-18T15:47:56.257Z,20.00
2023-03-18T15:50:30.371Z,20.20
2023-03-18T15:53:24.844Z,20.00
2023-03-18T15:55:57.040Z,19.80
2023-03-18T15:58:44.639Z,20.00
2023-03-18T16:01:17.673Z,20.00
2023-03-18T16:03:46.615Z,20.00
2023-03-18T16:06:14.968Z,20.20
2023-03-18T16:08:42.534Z,20.20
2023-03-18T16:11:11.267Z,20.20
2023-03-18T16:13:38.899Z,20.50
2023-03-18T16:16:06.199Z,20.40
2023-03-18T16:18:33.063Z,20.30
2023-03-18T16:21:00.712Z,20.50
2023-03-18T16:23:27.607Z,20.80
2023-03-18T16:25:56.241Z,21.20
2023-03-18T16:28:28.280Z,21.30
2023-03-18T16:30:56.327Z,21.30
2023-03-18T16:33:24.157Z,21.70
2023-03-18T16:35:59.014Z,21.80
2023-03-18T16:38:26.465Z,21.80
2023-03-18T16:40:54.848Z,22.40
2023-03-18T16:43:24.139Z,22.00
2023-03-18T16:45:51.601Z,22.20
2023-03-18T16:48:22.838Z,22.30
2023-03-18T16:50:51.113Z,22.50
2023-03-18T16:53:23.386Z,22.90
2023-03-18T16:55:52.793Z,22.60
2023-03-18T16:58:25.267Z,22.80
2023-03-18T17:00:52.225Z,22.90
2023-03-18T17:03:19.768Z,23.10
2023-03-18T17:05:53.006Z,23.30
2023-03-18T17:08:21.707Z,23.40
2023-03-18T17:10:51.612Z,23.60
2023-03-18T17:13:30.239Z,23.60
2023-03-18T17:15:57.778Z,23.90
2023-03-18T17:18:25.207Z,24.00
2023-03-18T17:20:52.465Z,23.80
2023-03-18T17:23:28.541Z,24.10
2023-03-18T17:25:59.644Z,24.20
2023-03-18T17:28:29.946Z,24.20
2023-03-18T17:30:56.938Z,24.40
2023-03-18T17:33:27.181Z,24.60
2023-03-18T17:35:55.137Z,24.60
2023-03-18T17:38:22.298Z,24.70
2023-03-18T17:40:49.728Z,24.70
2023-03-18T17:43:36.721Z,24.70
2023-03-18T17:46:05.119Z,24.80
2023-03-18T17:48:34.310Z,24.90
2023-03-18T17:51:04.838Z,24.90
2023-03-18T17:53:37.188Z,25.00
2023-03-18T17:56:06.469Z,25.00
2023-03-18T17:58:34.279Z,24.90
2023-03-18T18:01:12.949Z,25.10
2023-03-18T18:03:40.539Z,25.10
2023-03-18T18:06:08.204Z,25.40
2023-03-18T18:08:36.191Z,25.50
2023-03-18T18:11:20.194Z,25.60
2023-03-18T18:13:48.119Z,25.70
2023-03-18T18:16:15.146Z,25.70
2023-03-18T18:18:41.971Z,26.00
2023-03-18T18:21:17.257Z,26.00
2023-03-18T18:23:47.396Z,26.30
2023-03-18T18:26:19.974Z,26.40
2023-03-18T18:28:49.423Z,26.50
2023-03-18T18:31:19.368Z,26.70
2023-03-18T18:33:47.389Z,26.80
2023-03-18T18:36:14.488Z,26.90
2023-03-18T18:38:41.585Z,27.10
2023-03-18T18:41:08.791Z,27.10
2023-03-18T18:43:36.131Z,27.20
2023-03-18T18:46:03.509Z,27.60
2023-03-18T18:48:35.714Z,27.60
2023-03-18T18:51:04.377Z,27.40
2023-03-18T18:53:36.565Z,27.40
2023-03-18T18:56:23.782Z,27.40
2023-03-18T18:58:51.963Z,27.40
2023-03-18T19:01:19.709Z,27.30
2023-03-18T19:03:46.970Z,27.40
2023-03-18T19:06:33.147Z,27.50
2023-03-18T19:09:03.828Z,27.70
2023-03-18T19:11:30.636Z,27.90
2023-03-18T19:14:27.967Z,28.40
2023-03-18T19:16:58.366Z,28.50
2023-03-18T19:19:32.442Z,28.70
2023-03-18T19:21:59.221Z,28.90
2023-03-18T19:24:36.728Z,28.70
2023-03-18T19:27:06.892Z,28.80
2023-03-18T19:29:33.829Z,28.90
2023-03-18T19:32:03.581Z,28.60
2023-03-18T19:34:32.347Z,28.50
2023-03-18T19:37:00.000Z,28.80
2023-03-18T19:39:28.161Z,28.90
2023-03-18T19:41:54.995Z,28.80
2023-03-18T19:44:25.048Z,28.70
2023-03-18T19:46:55.049Z,28.50
2023-03-18T19:49:36.792Z,28.40
2023-03-18T19:52:22.715Z,28.30
2023-03-18T19:54:50.953Z,28.60
2023-03-18T19:57:22.555Z,28.70
2023-03-18T19:59:50.407Z,28.80
2023-03-18T20:02:25.039Z,28.90
2023-03-18T20:04:53.728Z,29.40
2023-03-18T20:07:22.736Z,29.50
2023-03-18T20:09:50.602Z,29.60
2023-03-18T20:12:28.118Z,29.50
2023-03-18T20:14:54.880Z,29.50
2023-03-18T20:17:28.254Z,29.70
2023-03-18T20:19:55.814Z,29.80
2023-03-18T20:22:30.292Z,30.00
2023-03-18T20:24:57.201Z,30.00
2023-03-18T20:27:24.124Z,30.00
2023-03-18T20:29:51.384Z,30.00
2023-03-18T20:32:18.279Z,30.00
2023-03-18T20:34:46.371Z,30.10
2023-03-18T20:37:33.626Z,30.50
2023-03-18T20:40:04.852Z,31.00
2023-03-18T20:42:32.392Z,31.30
2023-03-18T20:44:59.138Z,31.50
2023-03-18T20:47:25.904Z,31.30
2023-03-18T20:49:54.700Z,31.50
2023-03-18T20:52:28.544Z,31.60
2023-03-18T20:54:56.886Z,31.90
2023-03-18T20:57:24.754Z,32.20
2023-03-18T20:59:51.968Z,32.20
2023-03-18T21:02:32.835Z,32.00
2023-03-18T21:05:01.628Z,32.20
2023-03-18T21:07:28.963Z,32.40
2023-03-18T21:09:55.831Z,32.50
2023-03-18T21:12:22.964Z,32.50
2023-03-18T21:14:50.071Z,33.10
2023-03-18T21:17:22.253Z,33.50
2023-03-18T21:19:50.377Z,34.10
2023-03-18T21:22:21.760Z,34.30
2023-03-18T21:24:49.384Z,34.80
2023-03-18T21:27:21.696Z,35.00
2023-03-18T21:29:52.840Z,35.30
2023-03-18T21:32:28.312Z,35.70
2023-03-18T21:34:55.814Z,36.50
2023-03-18T21:37:26.360Z,36.90
2023-03-18T21:39:53.812Z,36.80
2023-03-18T21:42:30.017Z,36.80
2023-03-18T21:44:57.444Z,36.80
2023-03-18T21:47:26.598Z,36.80
2023-03-18T21:49:53.615Z,36.80
2023-03-18T21:52:31.360Z,36.90
2023-03-18T21:55:02.060Z,36.90
2023-03-18T21:57:29.798Z,37.20
2023-03-18T21:59:56.758Z,37.50
2023-03-18T22:02:29.302Z,37.70
2023-03-18T22:04:59.016Z,37.70
2023-03-18T22:07:27.544Z,38.10
2023-03-18T22:09:54.671Z,38.90
2023-03-18T22:12:25.568Z,39.40
2023-03-18T22:14:53.397Z,39.60
2023-03-18T22:17:31.248Z,39.80
2023-03-18T22:20:00.622Z,40.50
2023-03-18T22:22:36.809Z,40.80
2023-03-18T22:25:04.175Z,40.50
2023-03-18T22:27:32.245Z,40.90
2023-03-18T22:30:00.903Z,40.90
2023-03-18T22:32:44.829Z,40.70
2023-03-18T22:35:19.903Z,40.60
2023-03-18T22:37:47.071Z,40.70
2023-03-18T22:40:19.226Z,40.70
2023-03-18T22:42:47.935Z,40.90
2023-03-18T22:45:32.793Z,41.00
2023-03-18T22:48:02.792Z,41.20
2023-03-18T22:50:34.596Z,41.40
2023-03-18T22:53:05.483Z,41.80
2023-03-18T22:55:35.865Z,42.10
2023-03-18T22:58:03.116Z,42.30
2023-03-18T23:00:38.916Z,42.30
2023-03-18T23:03:19.204Z,42.50
2023-03-18T23:05:51.686Z,42.60
2023-03-18T23:08:19.526Z,43.50
2023-03-18T23:10:48.119Z,43.80
2023-03-18T23:13:42.132Z,43.90
2023-03-18T23:16:15.362Z,44.00
2023-03-18T23:18:42.205Z,44.50
2023-03-18T23:21:18.556Z,44.80
2023-03-18T23:23:45.743Z,44.90
2023-03-18T23:26:12.998Z,44.60
2023-03-18T23:28:46.930Z,44.60
2023-03-18T23:31:15.645Z,45.20
2023-03-18T23:33:43.185Z,45.50
2023-03-18T23:36:10.373Z,46.00
2023-03-18T23:38:37.846Z,46.40
2023-03-18T23:41:05.258Z,46.50
2023-03-18T23:43:31.991Z,46.90
2023-03-18T23:45:59.022Z,47.00
2023-03-18T23:48:26.195Z,47.10
2023-03-18T23:50:53.796Z,48.10
2023-03-18T23:53:20.816Z,48.70
2023-03-18T23:55:49.126Z,49.40
2023-03-18T23:58:16.283Z,49.60
